Time;durP1;ratioP1;P1;durP2;ratioP2;P2;SDS_P1;SDS_P2;PMS_P1;PMS_P2;Temp;Humidity;BMP_temperature;BMP_pressure;BME280_temperature;BME280_humidity;BME280_pressure;Samples;Min_cycle;Max_cycle;Signal;HPM_P1;HPM_P2
2022/12/17 13:06:53;;;;;;;104.68;37.65;;;;;;;-145.18;100.00;46592.03;5014278;28;20096;-73
2022/12/17 13:09:31;;;;;;;95.50;35.40;;;;;;;-145.18;100.00;46578.34;5013586;28;20034;-73
2022/12/17 13:12:17;;;;;;;94.40;36.85;;;;;;;-145.18;100.00;46586.16;4997202;28;20035;-73
2022/12/17 13:14:54;;;;;;;;;;;;;;;-145.18;100.00;46584.22;4994705;28;20034;-73
2022/12/17 13:17:31;;;;;;;97.03;34.65;;;;;;;-145.18;100.00;46588.13;4997401;28;20404;-73
2022/12/17 13:19:56;;;;;;;100.45;36.08;;;;;;;-145.18;100.00;46588.13;5013818;28;20125;-73
2022/12/17 13:22:21;;;;;;;105.27;36.80;;;;;;;-145.18;100.00;46590.06;4994843;28;20465;-73
2022/12/17 13:24:49;;;;;;;95.67;35.07;;;;;;;-145.18;100.00;46590.06;4993975;28;20033;-73
2022/12/17 13:27:33;;;;;;;96.15;36.65;;;;;;;-145.18;100.00;46595.94;4994292;28;20105;-73
2022/12/17 13:30:10;;;;;;;105.15;36.75;;;;;;;-145.18;100.00;46588.13;4993579;28;20061;-73
2022/12/17 13:33:02;;;;;;;99.10;35.65;;;;;;;-145.18;100.00;46588.13;4999229;28;20033;-73
2022/12/17 13:35:42;;;;;;;107.13;37.75;;;;;;;-145.18;100.00;46586.16;5013496;28;20107;-73
2022/12/17 13:38:29;;;;;;;100.05;36.03;;;;;;;-145.18;100.00;46593.97;5013446;28;20526;-74
2022/12/17 13:41:08;;;;;;;98.97;34.47;;;;;;;-145.18;100.00;46586.16;5012843;28;20092;-74
2022/12/17 13:43:49;;;;;;;97.40;33.38;;;;;;;-145.18;100.00;46590.06;5004102;28;20042;-74
2022/12/17 13:46:28;;;;;;;98.53;35.70;;;;;;;-145.18;100.00;46593.97;5012226;28;20497;-74
2022/12/17 13:48:56;;;;;;;98.25;34.88;;;;;;;-145.18;100.00;46593.97;5012409;28;20090;-73
2022/12/17 13:51:23;;;;;;;101.70;35.00;;;;;;;-145.18;100.00;46592.03;5013014;28;20108;-73
2022/12/17 13:54:03;;;;;;;102.43;35.97;;;;;;;-145.18;100.00;46593.97;4995802;28;20148;-74
2022/12/17 13:56:34;;;;;;;106.75;36.33;;;;;;;-145.18;100.00;46597.88;4997816;28;20105;-74
2022/12/17 13:59:02;;;;;;;100.75;36.03;;;;;;;-145.18;100.00;46597.88;5012591;28;20030;-74
2022/12/17 14:01:28;;;;;;;98.45;36.17;;;;;;;-145.18;100.00;46595.94;5013034;28;20072;-74
2022/12/17 14:03:57;;;;;;;99.10;34.97;;;;;;;-145.18;100.00;46597.88;5012524;28;20041;-74
2022/12/17 14:06:25;;;;;;;101.68;35.85;;;;;;;-145.18;100.00;46607.66;5013125;28;20068;-74
2022/12/17 14:08:53;;;;;;;99.22;33.60;;;;;;;-145.18;100.00;46607.66;4997772;28;20041;-74
2022/12/17 14:14:16;;;;;;;110.90;37.97;;;;;;;-145.18;100.00;46615.47;4993154;28;20053;-74
2022/12/17 14:16:43;;;;;;;103.80;33.50;;;;;;;-145.18;100.00;46625.22;4993176;28;20117;-74
2022/12/17 14:19:09;;;;;;;98.57;32.30;;;;;;;-145.18;100.00;46629.13;5007722;28;20026;-75
2022/12/17 14:21:36;;;;;;;99.63;33.40;;;;;;;-145.18;100.00;46621.31;5010687;28;20030;-75
2022/12/17 14:24:02;;;;;;;98.75;32.92;;;;;;;-145.18;100.00;46629.13;5011995;28;20038;-75
2022/12/17 14:26:28;;;;;;;91.95;31.70;;;;;;;-145.18;100.00;46619.38;5012854;28;20069;-74
2022/12/17 14:28:54;;;;;;;98.70;32.10;;;;;;;-145.18;100.00;46621.31;5010678;28;20029;-74
2022/12/17 14:31:21;;;;;;;98.95;33.03;;;;;;;-145.18;100.00;46625.22;5006115;28;20121;-75
2022/12/17 14:34:05;;;;;;;84.03;30.65;;;;;;;-145.18;100.00;46625.22;4992765;28;20030;-75
2022/12/17 14:36:33;;;;;;;99.50;33.67;;;;;;;-145.18;100.00;46629.13;4993005;28;20395;-76
2022/12/17 14:39:01;;;;;;;97.90;34.50;;;;;;;-145.18;100.00;46635.00;4992396;28;20487;-74
2022/12/17 14:44:21;;;;;;;95.53;32.85;;;;;;;-145.18;100.00;46635.00;5011608;28;20105;-74
2022/12/17 14:46:47;;;;;;;101.95;33.30;;;;;;;-145.18;100.00;46633.06;5011957;28;20433;-75
2022/12/17 14:49:21;;;;;;;102.85;33.75;;;;;;;-145.18;100.00;46638.91;5011864;28;20026;-74
2022/12/17 14:51:48;;;;;;;105.88;32.22;;;;;;;-145.18;100.00;46656.50;5011574;28;20061;-75
2022/12/17 14:54:13;;;;;;;109.35;33.05;;;;;;;-145.18;100.00;46662.34;4993200;28;20038;-75
2022/12/17 14:56:40;;;;;;;98.70;33.30;;;;;;;-145.18;100.00;46666.25;4992523;28;20037;-75
2022/12/17 14:59:32;;;;;;;99.95;33.17;;;;;;;-145.18;100.00;46672.13;4992978;28;20037;-75
2022/12/17 15:02:10;;;;;;;104.40;33.08;;;;;;;-145.18;100.00;46676.03;5003889;28;20843;-75
2022/12/17 15:04:38;;;;;;;103.97;32.53;;;;;;;-145.18;100.00;46679.94;5005185;28;20054;-75
2022/12/17 15:07:04;;;;;;;95.38;32.53;;;;;;;-145.18;100.00;46681.88;4992173;28;20026;-75
2022/12/17 15:09:35;;;;;;;102.18;33.10;;;;;;;-145.18;100.00;46683.84;4991831;28;20037;-76
2022/12/17 15:12:00;;;;;;;99.90;31.75;;;;;;;-145.18;100.00;46691.66;4991846;28;20050;-75
2022/12/17 15:14:25;;;;;;;101.93;32.80;;;;;;;-145.18;100.00;46697.50;4991959;28;20065;-75
2022/12/17 15:16:51;;;;;;;103.73;31.60;;;;;;;-145.18;100.00;46699.47;4980412;28;20104;-75
2022/12/17 15:19:16;;;;;;;90.50;31.43;;;;;;;-145.18;100.00;46703.38;5011030;28;20041;-75
2022/12/17 15:21:42;;;;;;;95.57;31.23;;;;;;;-145.18;100.00;46699.47;5011598;28;20038;-75
2022/12/17 15:24:13;;;;;;;101.93;31.70;;;;;;;-145.18;100.00;46705.31;5011201;28;20037;-75
2022/12/17 15:26:39;;;;;;;106.00;31.08;;;;;;;-145.18;100.00;46707.28;5011487;28;20025;-75
2022/12/17 15:29:04;;;;;;;94.23;32.47;;;;;;;-145.18;100.00;46705.31;5010669;28;20395;-75
2022/12/17 15:31:30;;;;;;;112.20;34.10;;;;;;;-145.18;100.00;46703.38;5011331;28;20170;-75
2022/12/17 15:33:57;;;;;;;105.93;32.70;;;;;;;-145.18;100.00;46709.22;4993628;28;20029;-75
2022/12/17 15:36:23;;;;;;;100.95;32.03;;;;;;;-145.18;100.00;46709.22;5006490;28;20562;-75
2022/12/17 15:38:48;;;;;;;101.83;33.63;;;;;;;-145.18;100.00;46715.09;4991605;28;20083;-74
2022/12/17 15:43:57;;;;;;;112.93;32.88;;;;;;;-145.18;100.00;46713.13;4991545;28;20036;-74
2022/12/17 15:46:23;;;;;;;113.73;35.83;;;;;;;-145.18;100.00;46713.13;4994748;28;20041;-74
2022/12/17 15:48:48;;;;;;;107.67;33.27;;;;;;;-145.18;100.00;46713.13;5010831;28;20131;-75
2022/12/17 15:51:13;;;;;;;107.53;33.47;;;;;;;-145.18;100.00;46719.00;4993437;28;20121;-74
2022/12/17 15:53:39;;;;;;;105.47;33.33;;;;;;;-145.18;100.00;46722.91;5011029;28;20034;-74
2022/12/17 15:56:04;;;;;;;102.73;33.23;;;;;;;-145.18;100.00;46717.03;5010668;28;20034;-75
2022/12/17 15:58:30;;;;;;;103.13;31.57;;;;;;;-145.18;100.00;46720.94;5003761;28;20045;-75
2022/12/17 16:00:55;;;;;;;102.27;33.00;;;;;;;-145.18;100.00;46720.94;4990989;28;20042;-74
2022/12/17 16:03:21;;;;;;;102.93;31.27;;;;;;;-145.18;100.00;46720.94;4990942;28;20058;-75
2022/12/17 16:05:46;;;;;;;102.90;31.63;;;;;;;-145.18;100.00;46724.84;4990738;28;20516;-75
2022/12/17 16:08:12;;;;;;;91.70;32.13;;;;;;;-145.18;100.00;46722.91;4991305;28;20099;-74
2022/12/17 16:10:38;;;;;;;100.83;33.47;;;;;;;-145.18;100.00;46719.00;4995937;28;20448;-75
2022/12/17 16:13:04;;;;;;;109.43;32.57;;;;;;;-145.18;100.00;46724.84;5010502;28;20151;-75
2022/12/17 16:15:30;;;;;;;105.10;34.40;;;;;;;-145.18;100.00;46724.84;5010622;28;20038;-75
2022/12/17 16:17:55;;;;;;;106.80;33.80;;;;;;;-145.18;100.00;46724.84;5006036;28;20030;-75
2022/12/17 16:20:21;;;;;;;103.20;33.67;;;;;;;-145.18;100.00;46720.94;4991055;28;20092;-75
2022/12/17 16:22:46;;;;;;;116.60;36.20;;;;;;;-145.18;100.00;46722.91;4982261;28;20125;-75
2022/12/17 16:25:12;;;;;;;109.00;34.17;;;;;;;-145.18;100.00;46720.94;4992861;28;20041;-76
2022/12/17 16:27:37;;;;;;;111.60;36.77;;;;;;;-145.18;100.00;46732.66;5001133;28;20068;-76
2022/12/17 16:30:03;;;;;;;108.77;33.93;;;;;;;-145.18;100.00;46724.84;5010212;28;20046;-77
2022/12/17 16:32:29;;;;;;;103.65;33.17;;;;;;;-145.18;100.00;46724.84;5010242;28;20137;-77
2022/12/17 16:34:54;;;;;;;108.30;32.63;;;;;;;-145.18;100.00;46722.91;4999721;28;20046;-77
2022/12/17 16:37:19;;;;;;;115.57;34.33;;;;;;;-145.18;100.00;46734.63;4991034;28;20185;-77
2022/12/17 16:39:45;;;;;;;110.17;32.97;;;;;;;-145.18;100.00;46726.81;4990881;28;20061;-77
2022/12/17 16:42:10;;;;;;;109.07;33.07;;;;;;;-145.18;100.00;46720.94;4990454;28;20034;-77
2022/12/17 16:44:36;;;;;;;114.13;32.80;;;;;;;-145.18;100.00;46726.81;4990655;28;20038;-77
2022/12/17 16:47:01;;;;;;;105.10;32.30;;;;;;;-145.18;100.00;46726.81;5000273;28;20033;-77
2022/12/17 16:49:27;;;;;;;106.93;33.20;;;;;;;-145.18;100.00;46726.81;5007901;28;20022;-77
2022/12/17 16:51:54;;;;;;;101.77;30.83;;;;;;;-145.18;100.00;46728.75;4999675;28;20026;-77
2022/12/17 16:54:23;;;;;;;99.95;31.42;;;;;;;-145.18;100.00;46728.75;5000922;28;20486;-77
2022/12/17 16:56:49;;;;;;;96.60;29.48;;;;;;;-145.18;100.00;46726.81;4999197;28;20069;-77
2022/12/17 16:59:15;;;;;;;101.75;33.08;;;;;;;-145.18;100.00;46724.84;4999821;28;20031;-77
2022/12/17 17:01:43;;;;;;;98.25;30.45;;;;;;;-145.18;100.00;46728.75;4998358;28;20038;-76
2022/12/17 17:04:10;;;;;;;103.72;29.83;;;;;;;-145.18;100.00;46726.81;4997334;28;20057;-77
2022/12/17 17:06:52;;;;;;;107.53;31.73;;;;;;;-145.18;100.00;46728.75;4995645;28;20038;-77
2022/12/17 17:09:18;;;;;;;118.65;32.03;;;;;;;-145.18;100.00;46726.81;4989666;28;20490;-76
2022/12/17 17:11:44;;;;;;;117.15;34.95;;;;;;;-145.18;100.00;46736.56;4994956;28;20042;-76
2022/12/17 17:14:10;;;;;;;112.00;33.95;;;;;;;-145.18;100.00;46724.84;4995961;28;20030;-76
2022/12/17 17:16:36;;;;;;;116.97;35.30;;;;;;;-145.18;100.00;46726.81;4995966;28;20031;-76
2022/12/17 17:19:02;;;;;;;125.23;33.63;;;;;;;-145.18;100.00;46728.75;5000341;28;20518;-76
2022/12/17 17:21:30;;;;;;;127.82;35.95;;;;;;;-145.18;100.00;46734.63;4990325;28;20065;-76
2022/12/17 17:23:58;;;;;;;150.00;39.90;;;;;;;-145.18;100.00;46732.66;4991705;28;20045;-76
2022/12/17 17:26:24;;;;;;;136.55;37.00;;;;;;;-145.18;100.00;46728.75;4992792;28;20033;-76
2022/12/17 17:28:50;;;;;;;132.27;35.67;;;;;;;-145.18;100.00;46732.66;5011152;28;20030;-76
2022/12/17 17:31:16;;;;;;;123.07;36.10;;;;;;;-145.18;100.00;46734.63;5013576;28;20032;-76
2022/12/17 17:33:47;;;;;;;129.03;37.80;;;;;;;-145.18;100.00;46732.66;5013571;28;20037;-76
2022/12/17 17:36:24;;;;;;;133.73;38.40;;;;;;;-145.18;100.00;46732.66;5011896;28;20436;-76
2022/12/17 17:38:51;;;;;;;141.07;38.90;;;;;;;-145.18;100.00;46726.81;4993863;28;20105;-76
2022/12/17 17:41:20;;;;;;;130.60;37.80;;;;;;;-145.18;100.00;46732.66;5010395;28;20069;-76
2022/12/17 17:43:45;;;;;;;120.35;33.83;;;;;;;-145.18;100.00;46732.66;5010828;28;20046;-76
2022/12/17 17:46:14;;;;;;;135.50;35.97;;;;;;;-145.18;100.00;46728.75;4995006;28;20038;-76
2022/12/17 17:48:41;;;;;;;140.90;37.22;;;;;;;-145.18;100.00;46732.66;4993389;28;20034;-76
2022/12/17 17:51:13;;;;;;;126.05;37.15;;;;;;;-145.18;100.00;46726.81;5012048;28;20049;-76
2022/12/17 17:53:40;;;;;;;133.85;36.20;;;;;;;-145.18;100.00;46732.66;4991559;28;20030;-76
2022/12/17 17:56:30;;;;;;;134.90;36.15;;;;;;;-145.18;100.00;46732.66;4992392;28;20073;-76
2022/12/17 17:59:03;;;;;;;122.20;34.28;;;;;;;-145.18;100.00;46728.75;4995374;28;20097;-76
2022/12/17 18:01:31;;;;;;;131.60;34.70;;;;;;;-145.18;100.00;46728.75;4996455;28;20073;-76
2022/12/17 18:03:58;;;;;;;125.82;36.45;;;;;;;-145.18;100.00;46728.75;4996428;28;20556;-76
2022/12/17 18:06:25;;;;;;;128.65;37.05;;;;;;;-145.18;100.00;46734.63;5012889;28;20081;-76
2022/12/17 18:08:51;;;;;;;133.48;35.45;;;;;;;-145.18;100.00;46726.81;5012307;28;20508;-76
2022/12/17 18:11:18;;;;;;;133.53;36.83;;;;;;;-145.18;100.00;46728.75;5012934;28;20113;-76
2022/12/17 18:13:56;;;;;;;132.27;36.65;;;;;;;-145.18;100.00;46732.66;5013118;28;20535;-76
2022/12/17 18:16:31;;;;;;;107.97;33.15;;;;;;;-145.18;100.00;46732.66;5006720;28;20528;-75
2022/12/17 18:19:01;;;;;;;115.68;33.85;;;;;;;-145.18;100.00;46726.81;4993104;28;20026;-76
2022/12/17 18:21:28;;;;;;;106.40;32.47;;;;;;;-145.18;100.00;46724.84;4993213;28;20103;-75
2022/12/17 18:23:59;;;;;;;122.45;33.42;;;;;;;-145.18;100.00;46728.75;4996876;28;20132;-75
2022/12/17 18:26:27;;;;;;;128.38;35.22;;;;;;;-145.18;100.00;46734.63;4992470;28;20031;-75
2022/12/17 18:28:52;;;;;;;124.28;36.05;;;;;;;-145.18;100.00;46732.66;4993172;28;20029;-75
2022/12/17 18:31:20;;;;;;;127.83;35.53;;;;;;;-145.18;100.00;46734.63;4994303;28;20035;-76
2022/12/17 18:33:52;;;;;;;126.60;34.92;;;;;;;-145.18;100.00;46736.56;5002655;28;20123;-75
2022/12/17 18:36:26;;;;;;;125.10;35.15;;;;;;;-145.18;100.00;46734.63;4976147;28;20049;-75
2022/12/17 18:39:00;;;;;;;111.43;32.15;;;;;;;-145.18;100.00;46728.75;4993276;28;20487;-75
2022/12/17 18:44:10;;;;;;;128.18;36.70;;;;;;;-145.18;100.00;46732.66;4993211;28;20085;-75
2022/12/17 18:46:36;;;;;;;131.10;37.05;;;;;;;-145.18;100.00;46732.66;4996480;28;20539;-76
2022/12/17 18:49:07;;;;;;;115.75;34.42;;;;;;;-145.18;100.00;46726.81;5011680;28;20033;-75
2022/12/17 18:51:38;;;;;;;117.95;33.60;;;;;;;-145.18;100.00;46726.81;5012264;28;20121;-75
2022/12/17 18:54:05;;;;;;;117.70;33.08;;;;;;;-145.18;100.00;46724.84;5012806;28;20482;-75
2022/12/17 18:56:32;;;;;;;126.45;34.85;;;;;;;-145.18;100.00;46728.75;5012886;28;20034;-75
2022/12/17 18:58:58;;;;;;;115.05;33.95;;;;;;;-145.18;100.00;46728.75;5006465;28;20033;-75
2022/12/17 19:01:29;;;;;;;111.47;34.27;;;;;;;-145.18;100.00;46728.75;4992838;28;20038;-75
2022/12/17 19:03:54;;;;;;;123.40;34.25;;;;;;;-145.18;100.00;46732.66;4992770;28;20054;-75
2022/12/17 19:06:21;;;;;;;127.10;34.70;;;;;;;-145.18;100.00;46736.56;4992951;28;20034;-75
2022/12/17 19:08:47;;;;;;;128.90;35.58;;;;;;;-145.18;100.00;46732.66;4992793;28;20031;-75
2022/12/17 19:11:15;;;;;;;128.23;37.73;;;;;;;-145.18;100.00;46732.66;4997245;28;20052;-75
2022/12/17 19:13:41;;;;;;;133.93;35.80;;;;;;;-145.18;100.00;46726.81;5012345;28;20022;-75
2022/12/17 19:16:11;;;;;;;115.63;34.70;;;;;;;-145.18;100.00;46728.75;5011912;28;20406;-75
2022/12/17 19:18:37;;;;;;;118.40;37.80;;;;;;;-145.18;100.00;46726.81;5006064;28;20034;-75
2022/12/17 19:21:05;;;;;;;118.50;32.83;;;;;;;-145.18;100.00;46732.66;5003638;28;20030;-75
2022/12/17 19:23:31;;;;;;;123.82;36.08;;;;;;;-145.18;100.00;46726.81;4992411;28;20039;-75
2022/12/17 19:26:04;;;;;;;119.68;33.38;;;;;;;-145.18;100.00;46728.75;4991841;28;20038;-75
2022/12/17 19:28:30;;;;;;;118.50;33.78;;;;;;;-145.18;100.00;46726.81;4991883;28;20034;-75
2022/12/17 19:30:56;;;;;;;126.80;34.50;;;;;;;-145.18;100.00;46724.84;4994338;28;20043;-75
2022/12/17 19:33:21;;;;;;;126.07;35.83;;;;;;;-145.18;100.00;46728.75;4992296;28;20038;-75
2022/12/17 19:35:47;;;;;;;123.13;37.57;;;;;;;-145.18;100.00;46736.56;4992204;28;20823;-75
2022/12/17 19:38:12;;;;;;;125.67;36.17;;;;;;;-145.18;100.00;46724.84;4991521;28;20070;-75
2022/12/17 19:40:37;;;;;;;131.53;35.63;;;;;;;-145.18;100.00;46734.63;4991640;28;20042;-75
2022/12/17 19:43:03;;;;;;;115.33;36.00;;;;;;;-145.18;100.00;46726.81;5003909;28;20042;-75
2022/12/17 19:45:30;;;;;;;130.07;36.33;;;;;;;-145.18;100.00;46732.66;5005029;28;20030;-76
2022/12/17 19:47:55;;;;;;;130.45;36.42;;;;;;;-145.18;100.00;46734.63;5010176;28;20037;-74
2022/12/17 19:50:21;;;;;;;118.77;38.60;;;;;;;-145.18;100.00;46724.84;5011150;28;20543;-75
2022/12/17 19:52:46;;;;;;;120.17;35.00;;;;;;;-145.18;100.00;46728.75;4992774;28;20121;-75
2022/12/17 19:55:11;;;;;;;128.17;36.07;;;;;;;-145.18;100.00;46728.75;5010767;28;20049;-75
2022/12/17 19:57:38;;;;;;;128.43;35.03;;;;;;;-145.18;100.00;46728.75;5011182;28;20045;-75
2022/12/17 20:00:04;;;;;;;118.97;33.63;;;;;;;-145.18;100.00;46728.75;5006050;28;20040;-75
2022/12/17 20:02:29;;;;;;;126.18;37.60;;;;;;;-145.18;100.00;46724.84;5003280;28;20084;-75
2022/12/17 20:04:55;;;;;;;125.77;36.73;;;;;;;-145.18;100.00;46726.81;5010613;28;20523;-75
2022/12/17 20:07:20;;;;;;;122.37;37.00;;;;;;;-145.18;100.00;46726.81;4998409;28;20034;-75
2022/12/17 20:09:45;;;;;;;117.93;34.80;;;;;;;-145.18;100.00;46734.63;4996496;28;20022;-75
2022/12/17 20:12:12;;;;;;;121.77;35.73;;;;;;;-145.18;100.00;46738.53;4973923;28;20062;-75
2022/12/17 20:14:37;;;;;;;134.75;39.65;;;;;;;-145.18;100.00;46728.75;4999696;28;20031;-75
2022/12/17 20:17:03;;;;;;;134.47;38.40;;;;;;;-145.18;100.00;46728.75;4999519;28;20707;-75
2022/12/17 20:19:31;;;;;;;126.47;38.28;;;;;;;-145.18;100.00;46726.81;5001169;28;20056;-75
2022/12/17 20:21:58;;;;;;;126.97;39.05;;;;;;;-145.18;100.00;46728.75;4999181;28;20030;-75
2022/12/17 20:24:23;;;;;;;126.47;36.35;;;;;;;-145.18;100.00;46726.81;5000720;28;20454;-75
2022/12/17 20:26:50;;;;;;;121.57;35.97;;;;;;;-145.18;100.00;46736.56;4998785;28;20034;-75
2022/12/17 20:29:17;;;;;;;117.50;33.80;;;;;;;-145.18;100.00;46726.81;5001979;28;20022;-75
2022/12/17 20:31:43;;;;;;;125.43;38.00;;;;;;;-145.18;100.00;46732.66;5000332;28;20091;-75
2022/12/17 20:34:12;;;;;;;138.07;38.17;;;;;;;-145.18;100.00;46728.75;5000935;28;20720;-75
2022/12/17 20:36:38;;;;;;;138.77;37.40;;;;;;;-145.18;100.00;46724.84;4985356;28;20483;-75
2022/12/17 20:39:03;;;;;;;134.00;37.88;;;;;;;-145.18;100.00;46724.84;4999322;28;20042;-76
2022/12/17 20:41:30;;;;;;;126.40;37.83;;;;;;;-145.18;100.00;46728.75;5001454;28;20023;-75
2022/12/17 20:43:56;;;;;;;117.28;35.92;;;;;;;-145.18;100.00;46726.81;5001534;28;20487;-75
2022/12/17 20:46:23;;;;;;;126.77;37.20;;;;;;;-145.18;100.00;46732.66;4999117;28;20042;-75
2022/12/17 20:48:48;;;;;;;123.88;37.00;;;;;;;-145.18;100.00;46732.66;5002632;28;20130;-76
2022/12/17 20:51:19;;;;;;;120.23;36.13;;;;;;;-145.18;100.00;46732.66;4983241;28;20034;-75
2022/12/17 20:53:46;;;;;;;115.57;34.20;;;;;;;-145.18;100.00;46728.75;4998724;28;20395;-75
2022/12/17 20:56:14;;;;;;;112.72;34.65;;;;;;;-145.18;100.00;46724.84;4990416;28;20034;-75
2022/12/17 20:58:41;;;;;;;123.30;36.60;;;;;;;-145.18;100.00;46726.81;4993994;28;20030;-75
2022/12/17 21:01:17;;;;;;;119.95;37.15;;;;;;;-145.18;100.00;46736.56;4994289;28;20092;-76
2022/12/17 21:03:43;;;;;;;116.03;36.30;;;;;;;-145.18;100.00;46726.81;4994639;28;20042;-76
2022/12/17 21:06:17;;;;;;;121.70;37.27;;;;;;;-145.18;100.00;46732.66;5013818;28;20042;-76
2022/12/17 21:08:44;;;;;;;119.10;33.60;;;;;;;-145.18;100.00;46732.66;5013990;28;20087;-76
2022/12/17 21:11:10;;;;;;;117.50;35.53;;;;;;;-145.18;100.00;46734.63;5004494;28;20042;-76
2022/12/17 21:13:36;;;;;;;116.83;34.73;;;;;;;-145.18;100.00;46728.75;5000164;28;20022;-75
2022/12/17 21:16:14;;;;;;;116.93;36.88;;;;;;;-145.18;100.00;46728.75;5013673;28;20057;-75
2022/12/17 21:18:39;;;;;;;114.40;36.20;;;;;;;-145.18;100.00;46732.66;5013880;28;20030;-75
2022/12/17 21:21:08;;;;;;;108.87;35.57;;;;;;;-145.18;100.00;46732.66;5006385;28;20383;-76
2022/12/17 21:23:35;;;;;;;113.85;35.28;;;;;;;-145.18;100.00;46734.63;4994199;28;20034;-75
2022/12/17 21:26:07;;;;;;;135.65;39.85;;;;;;;-145.18;100.00;46728.75;4993708;28;20034;-76
2022/12/17 21:28:34;;;;;;;118.07;38.35;;;;;;;-145.18;100.00;46724.84;4994075;28;20430;-75
2022/12/17 21:31:01;;;;;;;120.72;36.38;;;;;;;-145.18;100.00;46732.66;5002617;28;20576;-76
2022/12/17 21:33:27;;;;;;;124.95;38.97;;;;;;;-145.18;100.00;46728.75;5003739;28;20092;-76
2022/12/17 21:36:03;;;;;;;127.53;36.20;;;;;;;-145.18;100.00;46732.66;4993703;28;20399;-76
2022/12/17 21:38:29;;;;;;;122.90;37.80;;;;;;;-145.18;100.00;46728.75;4993853;28;20033;-75
2022/12/17 21:40:55;;;;;;;122.50;36.97;;;;;;;-145.18;100.00;46728.75;5000928;28;20022;-75
2022/12/17 21:43:21;;;;;;;109.50;34.85;;;;;;;-145.18;100.00;46728.75;5013039;28;20110;-76
2022/12/17 21:45:46;;;;;;;112.37;33.33;;;;;;;-145.18;100.00;46732.66;5002885;28;20035;-75
2022/12/17 21:48:12;;;;;;;113.03;34.77;;;;;;;-145.18;100.00;46724.84;4993752;28;20038;-76
2022/12/17 21:50:42;;;;;;;111.73;35.90;;;;;;;-145.18;100.00;46734.63;5002816;28;20045;-75
2022/12/17 21:53:08;;;;;;;107.93;33.83;;;;;;;-145.18;100.00;46732.66;5013075;28;20034;-76
2022/12/17 21:55:34;;;;;;;108.90;33.50;;;;;;;-145.18;100.00;46724.84;5012489;28;20061;-76
2022/12/17 21:58:00;;;;;;;110.77;33.40;;;;;;;-145.18;100.00;46732.66;5002877;28;20042;-76
2022/12/17 22:00:25;;;;;;;118.33;32.70;;;;;;;-145.18;100.00;46732.66;4993528;28;20671;-75
2022/12/17 22:02:51;;;;;;;104.13;32.87;;;;;;;-145.18;100.00;46726.81;4992851;28;20081;-75
2022/12/17 22:05:16;;;;;;;107.63;34.03;;;;;;;-145.18;100.00;46734.63;4993661;28;20030;-76
2022/12/17 22:07:41;;;;;;;112.03;35.80;;;;;;;-145.18;100.00;46728.75;4993160;28;20084;-76
2022/12/17 22:10:07;;;;;;;100.77;33.23;;;;;;;-145.18;100.00;46734.63;5000214;28;20045;-76
2022/12/17 22:15:17;;;;;;;109.78;32.80;;;;;;;-145.18;100.00;46726.81;5013031;28;20041;-76
2022/12/17 22:17:42;;;;;;;115.43;34.30;;;;;;;-145.18;100.00;46736.56;5012606;28;20030;-75
2022/12/17 22:20:08;;;;;;;114.43;34.13;;;;;;;-145.18;100.00;46736.56;5012394;28;20501;-76
2022/12/17 22:22:34;;;;;;;103.70;32.15;;;;;;;-145.18;100.00;46724.84;5011484;28;20056;-75
2022/12/17 22:24:59;;;;;;;111.53;32.37;;;;;;;-145.18;100.00;46726.81;5012608;28;20034;-76
2022/12/17 22:27:24;;;;;;;115.73;35.10;;;;;;;-145.18;100.00;46728.75;5012821;28;20493;-76
2022/12/17 22:35:18;;;;;;;120.95;33.30;;;;;;;-145.18;100.00;46734.63;5011474;28;20085;-75
2022/12/17 22:37:43;;;;;;;113.67;33.97;;;;;;;-145.18;100.00;46734.63;5012367;28;20037;-76
2022/12/17 22:40:09;;;;;;;111.60;33.77;;;;;;;-145.18;100.00;46734.63;5012255;28;20037;-76
2022/12/17 22:45:19;;;;;;;122.38;35.92;;;;;;;-145.18;100.00;46728.75;5009083;28;20104;-75
2022/12/17 22:47:44;;;;;;;109.00;33.80;;;;;;;-145.18;100.00;46726.81;4992481;28;20030;-75
2022/12/17 22:50:10;;;;;;;109.53;34.63;;;;;;;-145.18;100.00;46734.63;4992292;28;20531;-75
2022/12/17 22:52:36;;;;;;;111.10;34.13;;;;;;;-145.18;100.00;46732.66;4992484;28;20033;-76
2022/12/17 22:55:02;;;;;;;115.27;34.40;;;;;;;-145.18;100.00;46738.53;4992232;28;20046;-75
2022/12/17 22:57:27;;;;;;;109.20;34.23;;;;;;;-145.18;100.00;46734.63;4995936;28;20487;-75
2022/12/17 22:59:52;;;;;;;114.60;34.40;;;;;;;-145.18;100.00;46732.66;5011750;28;20224;-76
2022/12/17 23:02:18;;;;;;;110.47;34.57;;;;;;;-145.18;100.00;46738.53;5009824;28;20041;-75
2022/12/17 23:04:43;;;;;;;110.57;34.20;;;;;;;-145.18;100.00;46732.66;5011119;28;20532;-75
2022/12/17 23:07:08;;;;;;;121.23;36.03;;;;;;;-145.18;100.00;46732.66;5011580;28;20065;-75
2022/12/17 23:09:34;;;;;;;117.00;34.77;;;;;;;-145.18;100.00;46732.66;5011732;28;20077;-75
2022/12/17 23:12:49;;;;;;;109.13;36.30;;;;;;;-145.18;100.00;46732.66;5011480;28;20042;-75
2022/12/17 23:14:47;;;;;;;116.40;34.50;;;;;;;-145.18;100.00;46732.66;5010942;28;20042;-75
2022/12/17 23:17:12;;;;;;;104.13;32.77;;;;;;;-145.18;100.00;46732.66;4991755;28;20039;-75
2022/12/17 23:19:38;;;;;;;112.87;35.17;;;;;;;-145.18;100.00;46726.81;4992123;28;20034;-76
2022/12/17 23:22:03;;;;;;;111.27;34.87;;;;;;;-145.18;100.00;46734.63;4990718;28;20369;-76
2022/12/17 23:24:28;;;;;;;120.20;36.83;;;;;;;-145.18;100.00;46732.66;4991908;28;20173;-75
2022/12/17 23:26:54;;;;;;;104.10;33.57;;;;;;;-145.18;100.00;46734.63;4988877;28;20070;-76
2022/12/17 23:29:19;;;;;;;107.87;33.73;;;;;;;-145.18;100.00;46728.75;5011272;28;20034;-75
2022/12/17 23:31:45;;;;;;;105.73;35.67;;;;;;;-145.18;100.00;46728.75;5010053;28;20502;-75
2022/12/17 23:34:10;;;;;;;97.83;30.73;;;;;;;-145.18;100.00;46728.75;5011110;28;20033;-76
2022/12/17 23:36:36;;;;;;;105.87;33.63;;;;;;;-145.18;100.00;46732.66;4993697;28;20527;-76
2022/12/17 23:39:02;;;;;;;105.63;32.27;;;;;;;-145.18;100.00;46728.75;4992139;28;20042;-75
2022/12/17 23:41:29;;;;;;;121.05;33.47;;;;;;;-145.18;100.00;46732.66;5010862;28;20100;-75
2022/12/17 23:43:55;;;;;;;103.78;32.33;;;;;;;-145.18;100.00;46732.66;5002410;28;20042;-76
2022/12/17 23:46:22;;;;;;;103.13;34.80;;;;;;;-145.18;100.00;46732.66;4991772;28;20049;-75
2022/12/17 23:48:48;;;;;;;108.13;34.75;;;;;;;-145.18;100.00;46734.63;5010865;28;20575;-75
2022/12/17 23:51:16;;;;;;;132.90;34.87;;;;;;;-145.18;100.00;46726.81;5008525;28;20182;-76
2022/12/17 23:53:41;;;;;;;128.90;35.15;;;;;;;-145.18;100.00;46736.56;4991399;28;20721;-75
2022/12/17 23:56:10;;;;;;;132.27;34.33;;;;;;;-145.18;100.00;46734.63;4991118;28;20044;-75
2022/12/17 23:58:37;;;;;;;120.78;36.63;;;;;;;-145.18;100.00;46728.75;4991557;28;20106;-75
